sensor_id;sensor_type;location;lat;lon;timestamp;P1;durP1;ratioP1;P2;durP2;ratioP2
67715;SDS011;54508;43.238;25.306;2022-09-03T00:00:51;0.40;;;0.40;;
67715;SDS011;54508;43.238;25.306;2022-09-03T00:03:23;0.50;;;0.50;;
67715;SDS011;54508;43.238;25.306;2022-09-03T00:08:45;0.68;;;0.50;;
67715;SDS011;54508;43.238;25.306;2022-09-03T00:14:08;0.70;;;0.70;;
67715;SDS011;54508;43.238;25.306;2022-09-03T00:16:42;0.40;;;0.32;;
67715;SDS011;54508;43.238;25.306;2022-09-03T00:19:09;0.60;;;0.50;;
67715;SDS011;54508;43.238;25.306;2022-09-03T00:21:39;2.08;;;0.90;;
67715;SDS011;54508;43.238;25.306;2022-09-03T00:24:09;1.10;;;0.70;;
67715;SDS011;54508;43.238;25.306;2022-09-03T00:26:37;1.07;;;0.70;;
67715;SDS011;54508;43.238;25.306;2022-09-03T00:29:38;2.90;;;0.60;;
67715;SDS011;54508;43.238;25.306;2022-09-03T00:31:56;0.80;;;0.60;;
67715;SDS011;54508;43.238;25.306;2022-09-03T00:34:28;1.10;;;0.68;;
67715;SDS011;54508;43.238;25.306;2022-09-03T00:36:55;0.65;;;0.50;;
67715;SDS011;54508;43.238;25.306;2022-09-03T00:39:22;0.80;;;0.70;;
67715;SDS011;54508;43.238;25.306;2022-09-03T00:47:40;0.68;;;0.60;;
67715;SDS011;54508;43.238;25.306;2022-09-03T00:53:11;1.43;;;0.53;;
67715;SDS011;54508;43.238;25.306;2022-09-03T00:55:44;0.73;;;0.52;;
67715;SDS011;54508;43.238;25.306;2022-09-03T01:01:21;1.02;;;0.60;;
67715;SDS011;54508;43.238;25.306;2022-09-03T01:03:56;0.88;;;0.50;;
67715;SDS011;54508;43.238;25.306;2022-09-03T01:07:14;0.70;;;0.50;;
67715;SDS011;54508;43.238;25.306;2022-09-03T01:09:49;0.60;;;0.40;;
67715;SDS011;54508;43.238;25.306;2022-09-03T01:15:05;0.75;;;0.40;;
67715;SDS011;54508;43.238;25.306;2022-09-03T01:23:08;0.65;;;0.60;;
67715;SDS011;54508;43.238;25.306;2022-09-03T01:25:52;0.80;;;0.60;;
67715;SDS011;54508;43.238;25.306;2022-09-03T01:39:56;0.80;;;0.60;;
67715;SDS011;54508;43.238;25.306;2022-09-03T01:59:10;0.70;;;0.60;;
67715;SDS011;54508;43.238;25.306;2022-09-03T02:01:52;0.70;;;0.50;;
67715;SDS011;54508;43.238;25.306;2022-09-03T02:04:23;0.98;;;0.70;;
67715;SDS011;54508;43.238;25.306;2022-09-03T02:06:50;0.83;;;0.50;;
67715;SDS011;54508;43.238;25.306;2022-09-03T02:09:16;0.70;;;0.43;;
67715;SDS011;54508;43.238;25.306;2022-09-03T02:11:43;0.80;;;0.75;;
67715;SDS011;54508;43.238;25.306;2022-09-03T02:14:11;0.60;;;0.60;;
67715;SDS011;54508;43.238;25.306;2022-09-03T02:16:36;0.77;;;0.50;;
67715;SDS011;54508;43.238;25.306;2022-09-03T02:19:12;0.70;;;0.45;;
67715;SDS011;54508;43.238;25.306;2022-09-03T02:21:43;0.93;;;0.52;;
67715;SDS011;54508;43.238;25.306;2022-09-03T02:24:13;0.80;;;0.60;;
67715;SDS011;54508;43.238;25.306;2022-09-03T02:26:39;0.70;;;0.60;;
67715;SDS011;54508;43.238;25.306;2022-09-03T02:29:04;0.80;;;0.50;;
67715;SDS011;54508;43.238;25.306;2022-09-03T02:31:30;0.60;;;0.60;;
67715;SDS011;54508;43.238;25.306;2022-09-03T02:33:56;0.50;;;0.50;;
67715;SDS011;54508;43.238;25.306;2022-09-03T02:36:26;0.50;;;0.40;;
67715;SDS011;54508;43.238;25.306;2022-09-03T02:38:55;0.70;;;0.52;;
67715;SDS011;54508;43.238;25.306;2022-09-03T02:41:20;1.27;;;0.43;;
67715;SDS011;54508;43.238;25.306;2022-09-03T02:46:16;0.70;;;0.60;;
67715;SDS011;54508;43.238;25.306;2022-09-03T02:48:46;2.40;;;0.70;;
67715;SDS011;54508;43.238;25.306;2022-09-03T02:51:12;0.98;;;0.60;;
67715;SDS011;54508;43.238;25.306;2022-09-03T02:53:38;0.50;;;0.50;;
67715;SDS011;54508;43.238;25.306;2022-09-03T02:56:03;1.42;;;0.50;;
67715;SDS011;54508;43.238;25.306;2022-09-03T02:58:29;1.37;;;0.47;;
67715;SDS011;54508;43.238;25.306;2022-09-03T03:00:57;0.50;;;0.50;;
67715;SDS011;54508;43.238;25.306;2022-09-03T03:03:23;0.40;;;0.40;;
67715;SDS011;54508;43.238;25.306;2022-09-03T03:05:50;0.43;;;0.40;;
67715;SDS011;54508;43.238;25.306;2022-09-03T03:08:17;1.00;;;0.70;;
67715;SDS011;54508;43.238;25.306;2022-09-03T03:10:48;0.80;;;0.40;;
67715;SDS011;54508;43.238;25.306;2022-09-03T03:13:15;0.80;;;0.40;;
67715;SDS011;54508;43.238;25.306;2022-09-03T03:15:41;2.20;;;0.40;;
67715;SDS011;54508;43.238;25.306;2022-09-03T03:18:06;0.55;;;0.50;;
67715;SDS011;54508;43.238;25.306;2022-09-03T03:20:36;0.57;;;0.50;;
67715;SDS011;54508;43.238;25.306;2022-09-03T03:23:02;0.50;;;0.50;;
67715;SDS011;54508;43.238;25.306;2022-09-03T03:25:31;0.90;;;0.60;;
67715;SDS011;54508;43.238;25.306;2022-09-03T03:27:57;0.60;;;0.45;;
67715;SDS011;54508;43.238;25.306;2022-09-03T03:30:22;1.57;;;0.60;;
67715;SDS011;54508;43.238;25.306;2022-09-03T03:32:48;0.53;;;0.53;;
67715;SDS011;54508;43.238;25.306;2022-09-03T03:35:13;0.30;;;0.30;;
67715;SDS011;54508;43.238;25.306;2022-09-03T03:37:39;0.50;;;0.50;;
67715;SDS011;54508;43.238;25.306;2022-09-03T03:40:05;0.52;;;0.50;;
67715;SDS011;54508;43.238;25.306;2022-09-03T03:42:34;0.50;;;0.47;;
67715;SDS011;54508;43.238;25.306;2022-09-03T03:45:00;0.50;;;0.50;;
67715;SDS011;54508;43.238;25.306;2022-09-03T03:47:27;0.60;;;0.50;;
67715;SDS011;54508;43.238;25.306;2022-09-03T03:49:55;0.55;;;0.50;;
67715;SDS011;54508;43.238;25.306;2022-09-03T03:52:24;1.80;;;0.60;;
67715;SDS011;54508;43.238;25.306;2022-09-03T03:54:50;0.40;;;0.40;;
67715;SDS011;54508;43.238;25.306;2022-09-03T03:57:16;1.05;;;0.57;;
67715;SDS011;54508;43.238;25.306;2022-09-03T03:59:43;0.50;;;0.45;;
67715;SDS011;54508;43.238;25.306;2022-09-03T04:02:09;0.65;;;0.60;;
67715;SDS011;54508;43.238;25.306;2022-09-03T04:04:35;0.68;;;0.45;;
67715;SDS011;54508;43.238;25.306;2022-09-03T04:07:00;1.02;;;0.47;;
67715;SDS011;54508;43.238;25.306;2022-09-03T04:09:26;0.90;;;0.63;;
67715;SDS011;54508;43.238;25.306;2022-09-03T04:11:51;0.60;;;0.47;;
67715;SDS011;54508;43.238;25.306;2022-09-03T04:14:17;1.08;;;0.50;;
67715;SDS011;54508;43.238;25.306;2022-09-03T04:16:42;0.70;;;0.60;;
67715;SDS011;54508;43.238;25.306;2022-09-03T04:19:11;0.60;;;0.60;;
67715;SDS011;54508;43.238;25.306;2022-09-03T04:21:37;0.70;;;0.53;;
67715;SDS011;54508;43.238;25.306;2022-09-03T04:24:03;0.57;;;0.52;;
67715;SDS011;54508;43.238;25.306;2022-09-03T04:26:30;0.68;;;0.68;;
67715;SDS011;54508;43.238;25.306;2022-09-03T04:29:00;0.60;;;0.50;;
67715;SDS011;54508;43.238;25.306;2022-09-03T04:31:27;0.80;;;0.60;;
67715;SDS011;54508;43.238;25.306;2022-09-03T04:33:53;1.10;;;0.57;;
67715;SDS011;54508;43.238;25.306;2022-09-03T04:36:22;0.82;;;0.68;;
67715;SDS011;54508;43.238;25.306;2022-09-03T04:38:50;0.70;;;0.60;;
67715;SDS011;54508;43.238;25.306;2022-09-03T04:41:20;0.55;;;0.50;;
67715;SDS011;54508;43.238;25.306;2022-09-03T04:43:49;0.70;;;0.50;;
67715;SDS011;54508;43.238;25.306;2022-09-03T04:46:15;0.60;;;0.50;;
67715;SDS011;54508;43.238;25.306;2022-09-03T04:48:40;0.60;;;0.60;;
67715;SDS011;54508;43.238;25.306;2022-09-03T04:51:07;0.88;;;0.60;;
67715;SDS011;54508;43.238;25.306;2022-09-03T04:53:38;0.77;;;0.77;;
67715;SDS011;54508;43.238;25.306;2022-09-03T04:56:12;1.00;;;0.80;;
67715;SDS011;54508;43.238;25.306;2022-09-03T04:58:39;0.90;;;0.80;;
67715;SDS011;54508;43.238;25.306;2022-09-03T05:01:11;1.55;;;1.02;;
67715;SDS011;54508;43.238;25.306;2022-09-03T05:03:40;0.80;;;0.70;;
67715;SDS011;54508;43.238;25.306;2022-09-03T05:06:05;0.60;;;0.57;;
67715;SDS011;54508;43.238;25.306;2022-09-03T05:08:32;1.02;;;0.80;;
67715;SDS011;54508;43.238;25.306;2022-09-03T05:11:00;0.93;;;0.80;;
67715;SDS011;54508;43.238;25.306;2022-09-03T05:13:29;1.03;;;0.93;;
67715;SDS011;54508;43.238;25.306;2022-09-03T05:16:01;1.40;;;0.85;;
67715;SDS011;54508;43.238;25.306;2022-09-03T05:18:28;2.92;;;0.90;;
67715;SDS011;54508;43.238;25.306;2022-09-03T05:21:00;1.53;;;1.30;;
67715;SDS011;54508;43.238;25.306;2022-09-03T05:23:27;3.08;;;1.50;;
67715;SDS011;54508;43.238;25.306;2022-09-03T05:25:55;4.32;;;1.35;;
67715;SDS011;54508;43.238;25.306;2022-09-03T05:28:28;5.95;;;1.80;;
67715;SDS011;54508;43.238;25.306;2022-09-03T05:30:58;4.72;;;1.83;;
67715;SDS011;54508;43.238;25.306;2022-09-03T05:33:33;3.67;;;2.00;;
67715;SDS011;54508;43.238;25.306;2022-09-03T05:36:03;9.98;;;1.92;;
67715;SDS011;54508;43.238;25.306;2022-09-03T05:38:31;3.28;;;2.25;;
67715;SDS011;54508;43.238;25.306;2022-09-03T05:40:57;2.07;;;1.80;;
67715;SDS011;54508;43.238;25.306;2022-09-03T05:43:24;35.35;;;3.33;;
67715;SDS011;54508;43.238;25.306;2022-09-03T05:45:50;22.70;;;3.95;;
67715;SDS011;54508;43.238;25.306;2022-09-03T05:48:16;47.33;;;6.13;;
67715;SDS011;54508;43.238;25.306;2022-09-03T05:50:41;29.77;;;5.53;;
67715;SDS011;54508;43.238;25.306;2022-09-03T05:53:07;29.48;;;4.78;;
67715;SDS011;54508;43.238;25.306;2022-09-03T05:55:32;40.30;;;4.23;;
67715;SDS011;54508;43.238;25.306;2022-09-03T05:57:58;17.23;;;4.17;;
67715;SDS011;54508;43.238;25.306;2022-09-03T06:00:23;13.43;;;3.25;;
67715;SDS011;54508;43.238;25.306;2022-09-03T06:02:50;11.13;;;3.47;;
67715;SDS011;54508;43.238;25.306;2022-09-03T06:05:16;23.30;;;3.63;;
67715;SDS011;54508;43.238;25.306;2022-09-03T06:07:42;13.13;;;3.15;;
67715;SDS011;54508;43.238;25.306;2022-09-03T06:10:08;9.67;;;3.03;;
67715;SDS011;54508;43.238;25.306;2022-09-03T06:12:35;9.15;;;2.83;;
67715;SDS011;54508;43.238;25.306;2022-09-03T06:15:01;17.83;;;3.83;;
67715;SDS011;54508;43.238;25.306;2022-09-03T06:17:26;15.17;;;3.67;;
67715;SDS011;54508;43.238;25.306;2022-09-03T06:19:52;10.55;;;3.53;;
67715;SDS011;54508;43.238;25.306;2022-09-03T06:22:17;14.40;;;3.53;;
67715;SDS011;54508;43.238;25.306;2022-09-03T06:24:43;11.77;;;3.67;;
67715;SDS011;54508;43.238;25.306;2022-09-03T06:27:08;6.53;;;3.00;;
67715;SDS011;54508;43.238;25.306;2022-09-03T06:29:34;9.10;;;3.35;;
67715;SDS011;54508;43.238;25.306;2022-09-03T06:31:59;11.40;;;3.30;;
67715;SDS011;54508;43.238;25.306;2022-09-03T06:34:28;8.88;;;3.33;;
67715;SDS011;54508;43.238;25.306;2022-09-03T06:36:54;10.33;;;3.07;;
67715;SDS011;54508;43.238;25.306;2022-09-03T06:39:19;7.43;;;2.80;;
67715;SDS011;54508;43.238;25.306;2022-09-03T06:41:45;11.18;;;3.85;;
67715;SDS011;54508;43.238;25.306;2022-09-03T06:44:12;7.38;;;2.70;;
67715;SDS011;54508;43.238;25.306;2022-09-03T06:46:38;5.50;;;2.75;;
67715;SDS011;54508;43.238;25.306;2022-09-03T06:49:06;7.18;;;2.72;;
67715;SDS011;54508;43.238;25.306;2022-09-03T06:51:32;7.93;;;2.50;;
67715;SDS011;54508;43.238;25.306;2022-09-03T06:53:59;4.18;;;2.50;;
67715;SDS011;54508;43.238;25.306;2022-09-03T06:56:26;7.93;;;2.47;;
67715;SDS011;54508;43.238;25.306;2022-09-03T06:58:55;6.97;;;2.90;;
67715;SDS011;54508;43.238;25.306;2022-09-03T07:01:23;3.25;;;2.92;;
67715;SDS011;54508;43.238;25.306;2022-09-03T07:03:54;6.65;;;3.20;;
67715;SDS011;54508;43.238;25.306;2022-09-03T07:06:21;4.78;;;2.63;;
67715;SDS011;54508;43.238;25.306;2022-09-03T07:08:47;12.17;;;3.13;;
67715;SDS011;54508;43.238;25.306;2022-09-03T07:11:17;5.57;;;2.30;;
67715;SDS011;54508;43.238;25.306;2022-09-03T07:13:46;5.03;;;2.63;;
67715;SDS011;54508;43.238;25.306;2022-09-03T07:16:17;3.92;;;2.40;;
67715;SDS011;54508;43.238;25.306;2022-09-03T07:18:46;3.67;;;2.88;;
67715;SDS011;54508;43.238;25.306;2022-09-03T07:21:14;5.03;;;2.45;;
67715;SDS011;54508;43.238;25.306;2022-09-03T07:23:41;6.38;;;2.85;;
67715;SDS011;54508;43.238;25.306;2022-09-03T07:26:09;5.20;;;2.50;;
67715;SDS011;54508;43.238;25.306;2022-09-03T07:28:37;3.75;;;2.30;;
67715;SDS011;54508;43.238;25.306;2022-09-03T07:31:04;5.28;;;2.70;;
67715;SDS011;54508;43.238;25.306;2022-09-03T07:33:32;3.33;;;2.35;;
67715;SDS011;54508;43.238;25.306;2022-09-03T07:36:03;6.35;;;2.35;;
67715;SDS011;54508;43.238;25.306;2022-09-03T07:38:30;3.60;;;2.47;;
67715;SDS011;54508;43.238;25.306;2022-09-03T07:40:59;4.97;;;2.10;;
67715;SDS011;54508;43.238;25.306;2022-09-03T07:43:26;5.25;;;2.38;;
67715;SDS011;54508;43.238;25.306;2022-09-03T07:45:53;2.40;;;2.15;;
67715;SDS011;54508;43.238;25.306;2022-09-03T07:48:21;4.75;;;2.30;;
67715;SDS011;54508;43.238;25.306;2022-09-03T07:50:47;4.13;;;1.97;;
67715;SDS011;54508;43.238;25.306;2022-09-03T07:53:12;3.30;;;2.40;;
67715;SDS011;54508;43.238;25.306;2022-09-03T07:55:40;3.85;;;2.60;;
67715;SDS011;54508;43.238;25.306;2022-09-03T07:58:06;3.37;;;2.30;;
67715;SDS011;54508;43.238;25.306;2022-09-03T08:00:32;8.00;;;2.63;;
67715;SDS011;54508;43.238;25.306;2022-09-03T08:02:57;3.07;;;2.40;;
67715;SDS011;54508;43.238;25.306;2022-09-03T08:05:31;2.58;;;2.00;;
67715;SDS011;54508;43.238;25.306;2022-09-03T08:07:58;7.40;;;2.67;;
67715;SDS011;54508;43.238;25.306;2022-09-03T08:10:25;5.38;;;2.45;;
67715;SDS011;54508;43.238;25.306;2022-09-03T08:12:54;2.97;;;2.10;;
67715;SDS011;54508;43.238;25.306;2022-09-03T08:15:20;11.68;;;2.80;;
67715;SDS011;54508;43.238;25.306;2022-09-03T08:17:46;5.43;;;2.40;;
67715;SDS011;54508;43.238;25.306;2022-09-03T08:20:11;3.75;;;2.03;;
67715;SDS011;54508;43.238;25.306;2022-09-03T08:22:37;28.37;;;21.13;;
67715;SDS011;54508;43.238;25.306;2022-09-03T08:25:02;15.47;;;13.57;;
67715;SDS011;54508;43.238;25.306;2022-09-03T08:27:28;14.73;;;11.43;;
67715;SDS011;54508;43.238;25.306;2022-09-03T08:29:55;13.02;;;9.75;;
67715;SDS011;54508;43.238;25.306;2022-09-03T08:32:21;10.27;;;9.17;;
67715;SDS011;54508;43.238;25.306;2022-09-03T08:34:47;10.75;;;8.13;;
67715;SDS011;54508;43.238;25.306;2022-09-03T08:37:12;11.00;;;7.80;;
67715;SDS011;54508;43.238;25.306;2022-09-03T08:39:37;10.17;;;7.87;;
67715;SDS011;54508;43.238;25.306;2022-09-03T08:57:52;5.68;;;4.47;;
67715;SDS011;54508;43.238;25.306;2022-09-03T09:00:35;8.95;;;4.47;;
67715;SDS011;54508;43.238;25.306;2022-09-03T09:10:36;10.80;;;4.20;;
67715;SDS011;54508;43.238;25.306;2022-09-03T09:21:52;5.67;;;3.10;;
67715;SDS011;54508;43.238;25.306;2022-09-03T09:24:55;4.65;;;3.80;;
67715;SDS011;54508;43.238;25.306;2022-09-03T09:27:23;7.47;;;3.40;;
67715;SDS011;54508;43.238;25.306;2022-09-03T09:29:49;5.70;;;2.83;;
67715;SDS011;54508;43.238;25.306;2022-09-03T09:32:15;5.38;;;3.03;;
67715;SDS011;54508;43.238;25.306;2022-09-03T09:34:42;4.30;;;2.80;;
67715;SDS011;54508;43.238;25.306;2022-09-03T09:37:09;4.43;;;2.72;;
67715;SDS011;54508;43.238;25.306;2022-09-03T09:39:37;4.18;;;3.10;;
67715;SDS011;54508;43.238;25.306;2022-09-03T09:42:05;3.80;;;2.92;;
67715;SDS011;54508;43.238;25.306;2022-09-03T09:44:33;4.57;;;2.97;;
67715;SDS011;54508;43.238;25.306;2022-09-03T09:47:01;5.50;;;2.85;;
67715;SDS011;54508;43.238;25.306;2022-09-03T09:49:31;7.80;;;3.08;;
67715;SDS011;54508;43.238;25.306;2022-09-03T09:52:07;7.13;;;3.47;;
67715;SDS011;54508;43.238;25.306;2022-09-03T09:54:35;6.50;;;3.40;;
67715;SDS011;54508;43.238;25.306;2022-09-03T09:57:03;7.13;;;4.50;;
67715;SDS011;54508;43.238;25.306;2022-09-03T09:59:30;7.60;;;3.20;;
67715;SDS011;54508;43.238;25.306;2022-09-03T10:04:40;8.30;;;4.00;;
67715;SDS011;54508;43.238;25.306;2022-09-03T10:10:05;5.50;;;4.00;;
67715;SDS011;54508;43.238;25.306;2022-09-03T10:12:39;6.78;;;3.70;;
67715;SDS011;54508;43.238;25.306;2022-09-03T10:15:25;9.95;;;4.15;;
67715;SDS011;54508;43.238;25.306;2022-09-03T10:17:56;10.73;;;3.50;;
67715;SDS011;54508;43.238;25.306;2022-09-03T10:26:26;5.13;;;3.08;;
67715;SDS011;54508;43.238;25.306;2022-09-03T10:28:59;4.20;;;2.67;;
67715;SDS011;54508;43.238;25.306;2022-09-03T10:37:01;6.55;;;2.80;;
67715;SDS011;54508;43.238;25.306;2022-09-03T10:45:17;3.07;;;2.77;;
67715;SDS011;54508;43.238;25.306;2022-09-03T10:50:18;3.08;;;2.35;;
67715;SDS011;54508;43.238;25.306;2022-09-03T10:55:39;4.22;;;2.42;;
67715;SDS011;54508;43.238;25.306;2022-09-03T11:00:44;2.50;;;2.30;;
67715;SDS011;54508;43.238;25.306;2022-09-03T11:06:11;2.35;;;2.15;;
67715;SDS011;54508;43.238;25.306;2022-09-03T11:08:43;2.85;;;2.15;;
67715;SDS011;54508;43.238;25.306;2022-09-03T11:11:21;2.33;;;1.87;;
67715;SDS011;54508;43.238;25.306;2022-09-03T11:16:54;2.47;;;2.28;;
67715;SDS011;54508;43.238;25.306;2022-09-03T11:19:35;2.03;;;1.83;;
67715;SDS011;54508;43.238;25.306;2022-09-03T11:22:05;2.90;;;2.10;;
67715;SDS011;54508;43.238;25.306;2022-09-03T11:24:31;1.87;;;1.70;;
67715;SDS011;54508;43.238;25.306;2022-09-03T11:29:49;2.30;;;2.10;;
67715;SDS011;54508;43.238;25.306;2022-09-03T11:32:20;2.78;;;1.95;;
67715;SDS011;54508;43.238;25.306;2022-09-03T11:34:50;1.90;;;1.63;;
67715;SDS011;54508;43.238;25.306;2022-09-03T11:37:28;1.97;;;1.67;;
67715;SDS011;54508;43.238;25.306;2022-09-03T11:42:43;1.92;;;1.73;;
67715;SDS011;54508;43.238;25.306;2022-09-03T11:47:48;1.80;;;1.58;;
67715;SDS011;54508;43.238;25.306;2022-09-03T11:50:24;2.83;;;1.60;;
67715;SDS011;54508;43.238;25.306;2022-09-03T11:53:05;1.77;;;1.40;;
67715;SDS011;54508;43.238;25.306;2022-09-03T11:55:53;2.35;;;1.73;;
67715;SDS011;54508;43.238;25.306;2022-09-03T12:01:17;1.63;;;1.52;;
67715;SDS011;54508;43.238;25.306;2022-09-03T12:03:47;1.60;;;1.50;;
67715;SDS011;54508;43.238;25.306;2022-09-03T12:11:28;1.98;;;1.77;;
67715;SDS011;54508;43.238;25.306;2022-09-03T12:14:19;1.70;;;1.60;;
67715;SDS011;54508;43.238;25.306;2022-09-03T12:17:28;1.40;;;1.30;;
67715;SDS011;54508;43.238;25.306;2022-09-03T12:20:36;1.63;;;1.52;;
67715;SDS011;54508;43.238;25.306;2022-09-03T12:23:02;1.50;;;1.40;;
67715;SDS011;54508;43.238;25.306;2022-09-03T12:25:27;1.83;;;1.50;;
67715;SDS011;54508;43.238;25.306;2022-09-03T12:27:53;1.67;;;1.55;;
67715;SDS011;54508;43.238;25.306;2022-09-03T12:30:21;1.37;;;1.27;;
67715;SDS011;54508;43.238;25.306;2022-09-03T12:32:47;1.30;;;1.20;;
67715;SDS011;54508;43.238;25.306;2022-09-03T12:37:41;1.60;;;1.30;;
67715;SDS011;54508;43.238;25.306;2022-09-03T12:40:31;2.03;;;1.20;;
67715;SDS011;54508;43.238;25.306;2022-09-03T12:42:59;1.50;;;1.20;;
67715;SDS011;54508;43.238;25.306;2022-09-03T12:45:43;1.20;;;1.10;;
67715;SDS011;54508;43.238;25.306;2022-09-03T12:48:14;1.33;;;1.20;;
67715;SDS011;54508;43.238;25.306;2022-09-03T12:50:40;1.75;;;1.15;;
67715;SDS011;54508;43.238;25.306;2022-09-03T12:53:06;2.05;;;1.50;;
67715;SDS011;54508;43.238;25.306;2022-09-03T12:55:44;1.40;;;1.13;;
67715;SDS011;54508;43.238;25.306;2022-09-03T13:03:26;1.38;;;1.20;;
67715;SDS011;54508;43.238;25.306;2022-09-03T13:05:54;1.65;;;1.20;;
67715;SDS011;54508;43.238;25.306;2022-09-03T13:08:27;1.63;;;0.90;;
67715;SDS011;54508;43.238;25.306;2022-09-03T13:10:55;1.10;;;1.00;;
67715;SDS011;54508;43.238;25.306;2022-09-03T13:13:28;1.48;;;1.20;;
67715;SDS011;54508;43.238;25.306;2022-09-03T13:21:35;1.90;;;1.00;;
67715;SDS011;54508;43.238;25.306;2022-09-03T13:30:09;1.52;;;1.10;;
67715;SDS011;54508;43.238;25.306;2022-09-03T13:32:46;1.33;;;1.23;;
67715;SDS011;54508;43.238;25.306;2022-09-03T13:40:24;1.05;;;0.95;;
67715;SDS011;54508;43.238;25.306;2022-09-03T13:43:00;1.60;;;0.98;;
67715;SDS011;54508;43.238;25.306;2022-09-03T13:45:37;1.98;;;1.10;;
67715;SDS011;54508;43.238;25.306;2022-09-03T13:48:15;1.43;;;1.30;;
67715;SDS011;54508;43.238;25.306;2022-09-03T13:53:46;1.20;;;1.10;;
67715;SDS011;54508;43.238;25.306;2022-09-03T13:56:31;1.42;;;1.00;;
67715;SDS011;54508;43.238;25.306;2022-09-03T14:01:58;1.30;;;0.77;;
67715;SDS011;54508;43.238;25.306;2022-09-03T14:04:52;1.70;;;0.90;;
67715;SDS011;54508;43.238;25.306;2022-09-03T14:16:26;1.50;;;1.00;;
67715;SDS011;54508;43.238;25.306;2022-09-03T14:19:00;1.17;;;1.00;;
67715;SDS011;54508;43.238;25.306;2022-09-03T14:27:04;1.20;;;1.10;;
67715;SDS011;54508;43.238;25.306;2022-09-03T14:29:32;1.87;;;1.47;;
67715;SDS011;54508;43.238;25.306;2022-09-03T14:37:33;1.50;;;1.13;;
67715;SDS011;54508;43.238;25.306;2022-09-03T14:40:24;1.13;;;1.02;;
67715;SDS011;54508;43.238;25.306;2022-09-03T15:02:30;1.65;;;1.17;;
67715;SDS011;54508;43.238;25.306;2022-09-03T15:07:58;1.13;;;1.00;;
67715;SDS011;54508;43.238;25.306;2022-09-03T15:10:37;1.43;;;1.23;;
67715;SDS011;54508;43.238;25.306;2022-09-03T15:13:13;1.40;;;1.17;;
67715;SDS011;54508;43.238;25.306;2022-09-03T15:24:14;1.40;;;1.20;;
67715;SDS011;54508;43.238;25.306;2022-09-03T15:26:53;1.40;;;1.20;;
67715;SDS011;54508;43.238;25.306;2022-09-03T15:38:00;1.50;;;1.20;;
67715;SDS011;54508;43.238;25.306;2022-09-03T15:40:46;2.53;;;1.55;;
67715;SDS011;54508;43.238;25.306;2022-09-03T15:43:18;2.80;;;1.53;;
67715;SDS011;54508;43.238;25.306;2022-09-03T16:09:47;1.30;;;1.08;;
67715;SDS011;54508;43.238;25.306;2022-09-03T16:25:26;1.90;;;1.45;;
67715;SDS011;54508;43.238;25.306;2022-09-03T16:33:39;1.57;;;1.27;;
67715;SDS011;54508;43.238;25.306;2022-09-03T16:36:31;2.67;;;1.60;;
67715;SDS011;54508;43.238;25.306;2022-09-03T16:39:11;1.92;;;1.30;;
67715;SDS011;54508;43.238;25.306;2022-09-03T16:41:46;1.50;;;1.10;;
67715;SDS011;54508;43.238;25.306;2022-09-03T16:52:27;1.15;;;1.00;;
67715;SDS011;54508;43.238;25.306;2022-09-03T16:58:21;1.77;;;1.30;;
67715;SDS011;54508;43.238;25.306;2022-09-03T17:01:00;2.00;;;1.40;;
67715;SDS011;54508;43.238;25.306;2022-09-03T17:20:23;1.70;;;1.10;;
67715;SDS011;54508;43.238;25.306;2022-09-03T17:23:19;1.50;;;1.25;;
67715;SDS011;54508;43.238;25.306;2022-09-03T17:45:50;1.30;;;1.10;;
67715;SDS011;54508;43.238;25.306;2022-09-03T17:48:35;1.70;;;1.15;;
67715;SDS011;54508;43.238;25.306;2022-09-03T17:51:12;1.80;;;1.20;;
67715;SDS011;54508;43.238;25.306;2022-09-03T17:53:53;1.17;;;1.00;;
67715;SDS011;54508;43.238;25.306;2022-09-03T17:59:03;2.70;;;1.00;;
67715;SDS011;54508;43.238;25.306;2022-09-03T18:01:34;2.28;;;1.38;;
67715;SDS011;54508;43.238;25.306;2022-09-03T18:04:10;1.70;;;1.10;;
67715;SDS011;54508;43.238;25.306;2022-09-03T18:06:55;1.30;;;1.20;;
67715;SDS011;54508;43.238;25.306;2022-09-03T18:12:05;1.65;;;1.10;;
67715;SDS011;54508;43.238;25.306;2022-09-03T18:14:38;1.27;;;1.10;;
67715;SDS011;54508;43.238;25.306;2022-09-03T18:17:11;2.10;;;1.05;;
67715;SDS011;54508;43.238;25.306;2022-09-03T18:19:43;1.20;;;0.90;;
67715;SDS011;54508;43.238;25.306;2022-09-03T18:22:30;1.40;;;1.20;;
67715;SDS011;54508;43.238;25.306;2022-09-03T18:25:22;1.60;;;1.08;;
67715;SDS011;54508;43.238;25.306;2022-09-03T18:28:08;1.55;;;1.10;;
67715;SDS011;54508;43.238;25.306;2022-09-03T18:30:53;1.63;;;1.30;;
67715;SDS011;54508;43.238;25.306;2022-09-03T18:33:37;2.03;;;1.20;;
67715;SDS011;54508;43.238;25.306;2022-09-03T18:36:21;1.23;;;1.00;;
67715;SDS011;54508;43.238;25.306;2022-09-03T18:39:25;1.60;;;1.20;;
67715;SDS011;54508;43.238;25.306;2022-09-03T18:42:18;1.75;;;1.10;;
67715;SDS011;54508;43.238;25.306;2022-09-03T18:45:53;1.77;;;1.00;;
67715;SDS011;54508;43.238;25.306;2022-09-03T18:57:22;1.63;;;1.30;;
67715;SDS011;54508;43.238;25.306;2022-09-03T19:00:12;1.80;;;1.02;;
67715;SDS011;54508;43.238;25.306;2022-09-03T19:09:32;3.47;;;1.27;;
67715;SDS011;54508;43.238;25.306;2022-09-03T19:21:28;1.90;;;1.30;;
67715;SDS011;54508;43.238;25.306;2022-09-03T19:24:25;1.08;;;0.88;;
67715;SDS011;54508;43.238;25.306;2022-09-03T19:30:19;2.35;;;1.15;;
67715;SDS011;54508;43.238;25.306;2022-09-03T19:45:29;1.38;;;0.85;;
67715;SDS011;54508;43.238;25.306;2022-09-03T19:54:49;1.00;;;0.90;;
67715;SDS011;54508;43.238;25.306;2022-09-03T19:57:36;1.30;;;1.20;;
67715;SDS011;54508;43.238;25.306;2022-09-03T20:00:22;1.58;;;1.10;;
67715;SDS011;54508;43.238;25.306;2022-09-03T20:03:06;1.13;;;0.80;;
67715;SDS011;54508;43.238;25.306;2022-09-03T20:05:50;1.67;;;1.00;;
67715;SDS011;54508;43.238;25.306;2022-09-03T20:08:34;1.45;;;0.93;;
67715;SDS011;54508;43.238;25.306;2022-09-03T20:11:19;1.52;;;1.15;;
67715;SDS011;54508;43.238;25.306;2022-09-03T20:13:45;1.25;;;1.10;;
67715;SDS011;54508;43.238;25.306;2022-09-03T20:25:19;1.42;;;0.95;;
67715;SDS011;54508;43.238;25.306;2022-09-03T20:31:10;1.42;;;0.90;;
67715;SDS011;54508;43.238;25.306;2022-09-03T20:42:11;1.38;;;1.00;;
67715;SDS011;54508;43.238;25.306;2022-09-03T21:10:33;1.65;;;1.17;;
67715;SDS011;54508;43.238;25.306;2022-09-03T21:26:35;1.42;;;1.10;;
67715;SDS011;54508;43.238;25.306;2022-09-03T21:29:08;1.83;;;1.30;;
67715;SDS011;54508;43.238;25.306;2022-09-03T21:31:46;1.35;;;1.25;;
67715;SDS011;54508;43.238;25.306;2022-09-03T21:34:16;2.05;;;1.25;;
67715;SDS011;54508;43.238;25.306;2022-09-03T21:36:43;2.08;;;1.30;;
67715;SDS011;54508;43.238;25.306;2022-09-03T21:39:14;2.00;;;1.15;;
67715;SDS011;54508;43.238;25.306;2022-09-03T21:44:36;1.30;;;1.00;;
67715;SDS011;54508;43.238;25.306;2022-09-03T21:47:14;1.35;;;1.10;;
67715;SDS011;54508;43.238;25.306;2022-09-03T21:52:57;1.30;;;1.13;;
67715;SDS011;54508;43.238;25.306;2022-09-03T21:58:18;1.30;;;1.10;;
67715;SDS011;54508;43.238;25.306;2022-09-03T22:00:46;1.33;;;0.90;;
67715;SDS011;54508;43.238;25.306;2022-09-03T22:03:13;1.13;;;1.00;;
67715;SDS011;54508;43.238;25.306;2022-09-03T22:05:42;1.20;;;1.10;;
67715;SDS011;54508;43.238;25.306;2022-09-03T22:11:01;2.20;;;1.40;;
67715;SDS011;54508;43.238;25.306;2022-09-03T22:13:46;1.92;;;1.15;;
67715;SDS011;54508;43.238;25.306;2022-09-03T22:16:25;2.13;;;1.20;;
67715;SDS011;54508;43.238;25.306;2022-09-03T22:18:54;2.17;;;1.23;;
67715;SDS011;54508;43.238;25.306;2022-09-03T22:26:49;1.30;;;1.00;;
67715;SDS011;54508;43.238;25.306;2022-09-03T22:32:27;1.15;;;1.00;;
67715;SDS011;54508;43.238;25.306;2022-09-03T22:36:11;1.63;;;1.10;;